createdAt,value
2018-03-04T00:01:51.515Z,26.57
2018-03-04T00:04:19.326Z,31.73
2018-03-04T00:06:47.164Z,25.03
2018-03-04T00:09:14.990Z,29.97
2018-03-04T00:11:43.558Z,27.17
2018-03-04T00:14:11.380Z,30.77
2018-03-04T00:16:39.218Z,29.07
2018-03-04T00:19:07.048Z,28.37
2018-03-04T00:21:34.864Z,29.03
2018-03-04T00:24:02.686Z,30.40
2018-03-04T00:26:31.248Z,32.33
2018-03-04T00:28:59.079Z,31.67
2018-03-04T00:31:26.924Z,28.90
2018-03-04T00:33:54.744Z,32.47
2018-03-04T00:36:22.543Z,32.10
2018-03-04T00:38:51.115Z,31.10
2018-03-04T00:41:19.696Z,32.80
2018-03-04T00:43:48.250Z,32.53
2018-03-04T00:46:16.079Z,38.23
2018-03-04T00:48:43.905Z,34.90
2018-03-04T00:51:12.531Z,33.37
2018-03-04T00:53:40.379Z,35.20
2018-03-04T00:56:08.252Z,39.47
2018-03-04T00:58:36.104Z,35.67
2018-03-04T01:01:03.975Z,36.43
2018-03-04T01:03:31.836Z,36.03
2018-03-04T01:05:59.673Z,35.37
2018-03-04T01:08:28.605Z,38.47
2018-03-04T01:10:56.451Z,35.97
2018-03-04T01:13:24.297Z,36.43
2018-03-04T01:15:52.828Z,36.23
2018-03-04T01:18:20.579Z,33.57
2018-03-04T01:20:48.356Z,36.73
2018-03-04T01:23:16.092Z,34.43
2018-03-04T01:25:43.829Z,33.77
2018-03-04T01:28:12.371Z,36.97
2018-03-04T01:30:40.148Z,36.47
2018-03-04T01:33:07.894Z,36.10
2018-03-04T01:35:35.627Z,34.90
2018-03-04T01:38:03.369Z,31.00
2018-03-04T01:40:31.931Z,33.07
2018-03-04T01:42:59.740Z,34.87
2018-03-04T01:45:27.485Z,32.03
2018-03-04T01:47:55.265Z,33.30
2018-03-04T01:50:23.037Z,32.23
2018-03-04T01:52:50.796Z,33.63
2018-03-04T01:55:18.568Z,35.97
2018-03-04T01:57:46.332Z,37.73
2018-03-04T02:00:14.203Z,42.77
2018-03-04T02:02:41.983Z,42.37
2018-03-04T02:05:09.749Z,37.57
2018-03-04T02:07:37.519Z,35.37
2018-03-04T02:10:05.328Z,38.50
2018-03-04T02:12:33.107Z,42.30
2018-03-04T02:15:00.856Z,42.77
2018-03-04T02:17:28.609Z,36.93
2018-03-04T02:19:56.340Z,34.10
2018-03-04T02:22:24.103Z,33.07
2018-03-04T02:24:51.896Z,35.70
2018-03-04T02:27:19.656Z,35.57
2018-03-04T02:29:47.399Z,37.27
2018-03-04T02:32:15.923Z,36.50
2018-03-04T02:34:43.670Z,34.77
2018-03-04T02:37:11.424Z,38.37
2018-03-04T02:39:40.000Z,40.23
2018-03-04T02:42:08.446Z,38.20
2018-03-04T02:44:36.172Z,36.43
2018-03-04T02:47:03.860Z,37.77
2018-03-04T02:49:31.522Z,38.07
2018-03-04T02:51:59.313Z,37.07
2018-03-04T02:54:27.886Z,48.30
2018-03-04T02:56:55.722Z,36.67
2018-03-04T02:59:23.549Z,40.77
2018-03-04T03:01:51.349Z,41.20
2018-03-04T03:04:19.125Z,38.20
2018-03-04T03:06:46.813Z,49.83
2018-03-04T03:09:14.457Z,41.97
2018-03-04T03:11:42.111Z,41.23
2018-03-04T03:14:09.763Z,46.67
2018-03-04T03:16:37.454Z,38.47
2018-03-04T03:19:05.128Z,44.80
2018-03-04T03:21:33.571Z,48.27
2018-03-04T03:24:01.226Z,44.67
2018-03-04T03:26:28.938Z,47.00
2018-03-04T03:28:57.342Z,52.33
2018-03-04T03:31:25.002Z,38.20
2018-03-04T03:33:52.679Z,40.30
2018-03-04T03:36:20.346Z,41.97
2018-03-04T03:38:47.990Z,43.40
2018-03-04T03:41:15.685Z,38.30
2018-03-04T03:43:43.368Z,44.73
2018-03-04T03:46:11.784Z,45.37
2018-03-04T03:48:39.425Z,41.37
2018-03-04T03:51:07.862Z,36.97
2018-03-04T03:53:35.558Z,37.23
2018-03-04T03:56:04.011Z,39.60
2018-03-04T03:58:31.675Z,34.53
2018-03-04T04:00:59.513Z,31.37
2018-03-04T04:03:27.296Z,30.87
2018-03-04T04:05:54.959Z,27.43
2018-03-04T04:08:22.603Z,33.90
2018-03-04T04:10:50.257Z,31.57
2018-03-04T04:13:17.904Z,28.23
2018-03-04T04:15:45.548Z,32.47
2018-03-04T04:18:13.202Z,33.27
2018-03-04T04:20:40.885Z,31.10
2018-03-04T04:23:09.340Z,43.10
2018-03-04T04:25:37.087Z,33.00
2018-03-04T04:28:04.872Z,31.33
2018-03-04T04:30:32.686Z,34.50
2018-03-04T04:33:00.432Z,38.63
2018-03-04T04:35:28.186Z,39.30
2018-03-04T04:37:55.864Z,41.80
2018-03-04T04:40:23.585Z,42.93
2018-03-04T04:42:51.251Z,38.37
2018-03-04T04:45:18.932Z,41.17
2018-03-04T04:47:46.602Z,42.57
2018-03-04T04:50:14.278Z,45.70
2018-03-04T04:52:41.943Z,41.27
2018-03-04T04:55:09.587Z,42.60
2018-03-04T04:57:37.238Z,40.97
2018-03-04T05:00:04.918Z,49.57
2018-03-04T05:02:32.583Z,49.47
2018-03-04T05:05:00.309Z,39.13
2018-03-04T05:07:27.975Z,45.53
2018-03-04T05:09:55.618Z,46.50
2018-03-04T05:12:23.261Z,44.67
2018-03-04T05:14:50.933Z,41.20
2018-03-04T05:17:18.577Z,48.43
2018-03-04T05:19:47.000Z,41.47
2018-03-04T05:22:14.647Z,39.13
2018-03-04T05:24:42.309Z,31.17
2018-03-04T05:27:09.955Z,35.03
2018-03-04T05:29:37.621Z,32.53
2018-03-04T05:32:05.346Z,32.87
2018-03-04T05:34:33.864Z,38.70
2018-03-04T05:37:01.617Z,31.47
2018-03-04T05:39:29.361Z,35.07
2018-03-04T05:41:57.121Z,35.90
2018-03-04T05:44:24.874Z,32.43
2018-03-04T05:46:53.383Z,38.63
2018-03-04T05:49:21.125Z,42.40
2018-03-04T05:51:48.873Z,51.10
2018-03-04T05:54:17.395Z,49.07
2018-03-04T05:56:45.129Z,50.20
2018-03-04T05:59:12.879Z,45.13
2018-03-04T06:01:41.391Z,56.27
2018-03-04T06:04:09.923Z,47.57
2018-03-04T06:06:37.673Z,47.03
2018-03-04T06:09:05.430Z,42.73
2018-03-04T06:11:33.195Z,43.67
2018-03-04T06:14:00.946Z,43.57
2018-03-04T06:16:28.700Z,45.70
2018-03-04T06:18:57.217Z,37.07
2018-03-04T06:21:24.985Z,38.77
2018-03-04T06:23:52.720Z,39.00
2018-03-04T06:26:20.490Z,42.07
2018-03-04T06:28:48.237Z,36.67
2018-03-04T06:31:15.977Z,35.60
2018-03-04T06:33:43.716Z,38.50
2018-03-04T06:36:12.243Z,35.90
2018-03-04T06:38:39.987Z,37.93
2018-03-04T06:41:07.767Z,39.93
2018-03-04T06:43:35.522Z,38.20
2018-03-04T06:46:03.258Z,38.73
2018-03-04T06:48:31.013Z,36.60
2018-03-04T06:50:59.517Z,37.73
2018-03-04T06:53:27.272Z,38.07
2018-03-04T06:55:55.014Z,39.57
2018-03-04T06:58:23.566Z,34.90
2018-03-04T07:00:51.305Z,38.97
2018-03-04T07:03:19.033Z,37.43
2018-03-04T07:05:46.777Z,34.83
2018-03-04T07:08:15.302Z,36.33
2018-03-04T07:10:43.044Z,37.83
2018-03-04T07:13:10.835Z,35.57
2018-03-04T07:15:38.593Z,39.30
2018-03-04T07:18:06.332Z,37.37
2018-03-04T07:20:34.080Z,41.30
2018-03-04T07:23:02.577Z,46.53
2018-03-04T07:25:30.327Z,41.30
2018-03-04T07:27:58.090Z,42.83
2018-03-04T07:30:25.845Z,44.77
2018-03-04T07:32:54.354Z,38.77
2018-03-04T07:35:22.891Z,44.70
2018-03-04T07:37:51.411Z,42.70
2018-03-04T07:40:19.163Z,40.37
2018-03-04T07:42:46.919Z,35.80
2018-03-04T07:45:15.612Z,37.43
2018-03-04T07:47:43.355Z,37.63
2018-03-04T07:50:11.872Z,41.13
2018-03-04T07:52:39.616Z,43.03
2018-03-04T07:55:07.349Z,36.87
2018-03-04T07:57:35.854Z,39.63
2018-03-04T08:00:03.664Z,39.53
2018-03-04T08:02:31.422Z,34.90
2018-03-04T08:04:59.185Z,35.07
2018-03-04T08:07:26.931Z,37.27
2018-03-04T08:09:54.672Z,37.87
2018-03-04T08:12:22.485Z,36.03
2018-03-04T08:14:50.244Z,38.97
2018-03-04T08:17:18.003Z,36.47
2018-03-04T08:19:45.781Z,40.43
2018-03-04T08:22:13.534Z,39.80
2018-03-04T08:24:41.316Z,39.13
2018-03-04T08:27:20.965Z,38.37
2018-03-04T08:29:49.469Z,38.57
2018-03-04T08:32:17.200Z,36.70
2018-03-04T08:34:44.940Z,47.83
2018-03-04T08:37:12.705Z,40.57
2018-03-04T08:39:40.453Z,46.40
2018-03-04T08:42:08.136Z,47.50
2018-03-04T08:44:35.830Z,41.00
2018-03-04T08:47:04.336Z,41.63
2018-03-04T08:49:32.006Z,33.10
2018-03-04T08:51:59.755Z,42.60
2018-03-04T08:54:27.587Z,35.17
2018-03-04T08:56:56.116Z,25.60
2018-03-04T08:59:23.868Z,35.10
2018-03-04T09:01:51.730Z,37.03
2018-03-04T09:04:19.480Z,36.40
2018-03-04T09:06:47.219Z,38.00
2018-03-04T09:09:15.747Z,23.87
2018-03-04T09:11:43.485Z,24.93
2018-03-04T09:14:11.271Z,30.07
2018-03-04T09:16:38.958Z,27.50
2018-03-04T09:19:06.653Z,23.27
2018-03-04T09:21:35.105Z,28.93
2018-03-04T09:24:02.795Z,26.47
2018-03-04T09:26:31.236Z,26.97
2018-03-04T09:28:58.906Z,27.97
2018-03-04T09:31:26.578Z,34.70
2018-03-04T09:33:54.267Z,33.83
2018-03-04T09:36:22.671Z,31.13
2018-03-04T09:38:50.342Z,33.13
2018-03-04T09:41:18.000Z,30.53
2018-03-04T09:43:45.649Z,33.87
2018-03-04T09:46:13.349Z,33.57
2018-03-04T09:48:41.026Z,27.77
2018-03-04T09:51:08.693Z,29.53
2018-03-04T09:53:36.382Z,24.70
2018-03-04T09:56:04.098Z,26.67
2018-03-04T09:58:31.902Z,28.13
2018-03-04T10:01:00.382Z,27.30
2018-03-04T10:03:28.787Z,30.60
2018-03-04T10:05:56.478Z,32.40
2018-03-04T10:08:24.166Z,30.10
2018-03-04T10:10:51.803Z,25.53
2018-03-04T10:13:19.488Z,26.90
2018-03-04T10:15:48.041Z,28.53
2018-03-04T10:18:15.785Z,31.33
2018-03-04T10:20:43.556Z,30.93
2018-03-04T10:23:11.340Z,37.73
2018-03-04T10:25:39.091Z,37.80
2018-03-04T10:28:06.873Z,43.53
2018-03-04T10:30:35.314Z,43.80
2018-03-04T10:33:03.052Z,42.40
2018-03-04T10:35:30.757Z,39.63
2018-03-04T10:37:58.425Z,45.07
2018-03-04T10:40:26.066Z,44.53
2018-03-04T10:42:53.727Z,46.30
2018-03-04T10:45:21.413Z,42.80
2018-03-04T10:47:49.056Z,41.17
2018-03-04T10:50:16.726Z,45.17
2018-03-04T10:52:44.408Z,49.20
2018-03-04T10:55:12.893Z,46.00
2018-03-04T10:57:41.322Z,44.67
2018-03-04T11:00:09.047Z,40.87
2018-03-04T11:02:38.374Z,41.40
2018-03-04T11:05:06.107Z,43.03
2018-03-04T11:07:34.550Z,47.60
2018-03-04T11:10:02.263Z,40.50
2018-03-04T11:12:29.968Z,44.40
2018-03-04T11:14:57.635Z,41.97
2018-03-04T11:17:25.316Z,39.77
2018-03-04T11:19:53.730Z,41.93
2018-03-04T11:22:21.372Z,48.63
2018-03-04T11:24:49.818Z,47.37
2018-03-04T11:27:17.496Z,44.83
2018-03-04T11:29:45.900Z,51.27
2018-03-04T11:32:13.553Z,54.67
2018-03-04T11:34:41.219Z,55.30
2018-03-04T11:37:08.884Z,55.60
2018-03-04T11:39:36.542Z,46.77
2018-03-04T11:42:04.214Z,56.37
2018-03-04T11:44:31.877Z,63.33
2018-03-04T11:46:59.528Z,56.77
2018-03-04T11:49:27.210Z,51.93
2018-03-04T11:51:54.884Z,56.03
2018-03-04T11:54:22.539Z,54.07
2018-03-04T11:56:50.175Z,57.40
2018-03-04T11:59:17.837Z,43.77
2018-03-04T12:01:45.501Z,54.17
2018-03-04T12:04:13.155Z,55.87
2018-03-04T12:06:40.799Z,51.27
2018-03-04T12:09:08.454Z,49.60
2018-03-04T12:11:36.886Z,49.73
2018-03-04T12:14:04.580Z,53.80
2018-03-04T12:16:33.038Z,45.97
2018-03-04T12:19:00.688Z,53.90
2018-03-04T12:21:28.350Z,57.87
2018-03-04T12:23:56.854Z,48.10
2018-03-04T12:26:25.290Z,54.60
2018-03-04T12:28:52.954Z,50.97
2018-03-04T12:31:20.596Z,60.50
2018-03-04T12:33:48.275Z,62.97
2018-03-04T12:36:15.941Z,58.07
2018-03-04T12:38:43.619Z,60.97
2018-03-04T12:41:11.325Z,58.97
2018-03-04T12:43:39.027Z,60.00
2018-03-04T12:46:06.708Z,53.40
2018-03-04T12:48:34.417Z,57.93
2018-03-04T12:51:02.145Z,57.83
2018-03-04T12:53:30.620Z,53.83
2018-03-04T12:55:58.294Z,56.87
2018-03-04T12:58:26.737Z,62.83
2018-03-04T13:00:55.522Z,56.63
2018-03-04T13:03:23.203Z,55.57
2018-03-04T13:05:50.965Z,64.30
2018-03-04T13:08:18.691Z,62.97
2018-03-04T13:10:46.355Z,55.80
2018-03-04T13:13:14.042Z,61.20
2018-03-04T13:15:41.703Z,59.40
2018-03-04T13:18:09.370Z,63.57
2018-03-04T13:20:37.923Z,67.60
2018-03-04T13:23:05.613Z,63.27
2018-03-04T13:25:33.279Z,60.33
2018-03-04T13:28:00.939Z,55.80
2018-03-04T13:30:29.491Z,59.47
2018-03-04T13:32:58.048Z,55.07
2018-03-04T13:35:25.746Z,52.50
2018-03-04T13:37:54.188Z,55.30
2018-03-04T13:40:21.828Z,60.70
2018-03-04T13:42:49.487Z,55.70
2018-03-04T13:45:17.905Z,54.37
2018-03-04T13:47:45.556Z,55.37
2018-03-04T13:50:16.136Z,53.03
2018-03-04T13:52:45.163Z,56.77
2018-03-04T13:55:12.823Z,60.37
2018-03-04T13:57:40.594Z,65.90
2018-03-04T14:00:08.335Z,58.40
2018-03-04T14:02:36.007Z,60.83
2018-03-04T14:05:03.679Z,63.27
2018-03-04T14:07:31.346Z,71.00
2018-03-04T14:09:59.731Z,70.73
2018-03-04T14:12:27.438Z,63.53
2018-03-04T14:14:55.906Z,59.00
2018-03-04T14:17:23.571Z,65.00
2018-03-04T14:19:52.022Z,62.33
2018-03-04T14:22:19.702Z,64.53
2018-03-04T14:24:48.334Z,64.83
2018-03-04T14:27:16.163Z,75.13
2018-03-04T14:29:44.765Z,64.40
2018-03-04T14:32:12.596Z,66.63
2018-03-04T14:34:41.175Z,65.63
2018-03-04T14:37:09.023Z,63.37
2018-03-04T14:39:36.862Z,69.63
2018-03-04T14:42:04.716Z,63.30
2018-03-04T14:44:32.535Z,73.10
2018-03-04T14:47:01.135Z,65.90
2018-03-04T14:49:29.748Z,68.53
2018-03-04T14:51:57.464Z,69.93
2018-03-04T14:54:25.177Z,67.70
2018-03-04T14:56:52.805Z,68.23
2018-03-04T14:59:21.782Z,59.63
2018-03-04T15:01:49.478Z,75.67
2018-03-04T15:04:17.171Z,77.47
2018-03-04T15:06:45.431Z,79.43
2018-03-04T15:09:13.086Z,74.80
2018-03-04T15:11:40.782Z,74.93
2018-03-04T15:14:08.472Z,78.73
2018-03-04T15:16:36.882Z,74.63
2018-03-04T15:19:05.115Z,79.13
2018-03-04T15:21:33.395Z,77.80
2018-03-04T15:24:01.863Z,69.93
2018-03-04T15:26:29.512Z,84.77
2018-03-04T15:28:57.182Z,79.00
2018-03-04T15:31:24.864Z,82.10
2018-03-04T15:33:53.271Z,80.17
2018-03-04T15:36:20.947Z,81.07
2018-03-04T15:38:49.427Z,82.63
2018-03-04T15:41:18.291Z,71.27
2018-03-04T15:43:47.250Z,82.80
2018-03-04T15:46:14.927Z,90.03
2018-03-04T15:48:44.340Z,90.13
2018-03-04T15:51:12.111Z,85.10
2018-03-04T15:53:39.793Z,90.43
2018-03-04T15:56:07.509Z,95.73
2018-03-04T15:58:35.937Z,94.83
2018-03-04T16:01:03.623Z,85.60
2018-03-04T16:03:31.290Z,83.87
2018-03-04T16:05:59.024Z,87.60
2018-03-04T16:08:26.715Z,83.90
2018-03-04T16:10:54.440Z,92.70
2018-03-04T16:13:22.177Z,92.60
2018-03-04T16:15:50.750Z,97.37
2018-03-04T16:18:19.339Z,85.53
2018-03-04T16:20:47.094Z,93.70
2018-03-04T16:23:14.856Z,93.63
2018-03-04T16:25:42.664Z,90.20
2018-03-04T16:28:10.394Z,83.23
2018-03-04T16:30:39.172Z,92.57
2018-03-04T16:33:06.926Z,88.13
2018-03-04T16:35:34.689Z,87.97
2018-03-04T16:38:03.072Z,85.93
2018-03-04T16:40:30.832Z,93.00
2018-03-04T16:42:59.657Z,95.80
2018-03-04T16:45:27.410Z,94.37
2018-03-04T16:47:56.042Z,95.17
2018-03-04T16:50:23.776Z,91.00
2018-03-04T16:52:51.512Z,97.17
2018-03-04T16:55:19.266Z,89.90
2018-03-04T16:57:47.029Z,109.17
2018-03-04T17:00:14.820Z,89.60
2018-03-04T17:02:42.558Z,93.23
2018-03-04T17:05:11.171Z,92.93
2018-03-04T17:07:38.925Z,90.00
2018-03-04T17:10:06.818Z,91.63
2018-03-04T17:12:35.492Z,91.50
2018-03-04T17:15:03.254Z,90.33
2018-03-04T17:17:31.020Z,93.97
2018-03-04T17:19:58.820Z,89.03
2018-03-04T17:22:26.565Z,90.43
2018-03-04T17:24:55.074Z,91.17
2018-03-04T17:27:22.830Z,101.53
2018-03-04T17:29:50.577Z,86.43
2018-03-04T17:32:19.114Z,90.27
2018-03-04T17:34:46.881Z,77.40
2018-03-04T17:37:14.659Z,88.17
2018-03-04T17:39:43.168Z,72.63
2018-03-04T17:42:11.734Z,75.73
2018-03-04T17:44:41.237Z,64.80
2018-03-04T17:47:09.752Z,73.83
2018-03-04T17:49:37.505Z,66.70
2018-03-04T17:52:05.889Z,66.33
2018-03-04T17:57:08.968Z,77.63
2018-03-04T17:59:37.481Z,67.33
2018-03-04T18:02:06.265Z,67.67
2018-03-04T18:07:02.625Z,71.47
2018-03-04T18:09:30.378Z,68.27
2018-03-04T18:11:58.902Z,72.10
2018-03-04T18:14:26.688Z,73.13
2018-03-04T18:16:55.268Z,72.03
2018-03-04T18:19:23.788Z,75.73
2018-03-04T18:21:53.223Z,77.23
2018-03-04T18:24:20.993Z,77.27
2018-03-04T18:26:49.537Z,82.53
2018-03-04T18:29:17.289Z,81.97
2018-03-04T18:31:45.048Z,86.50
2018-03-04T18:34:12.830Z,80.53
2018-03-04T18:36:42.464Z,83.43
2018-03-04T18:39:10.225Z,89.13
2018-03-04T18:41:37.979Z,93.90
2018-03-04T18:44:05.722Z,106.87
2018-03-04T18:46:33.466Z,99.13
2018-03-04T18:49:02.161Z,100.43
2018-03-04T18:51:29.912Z,93.23
2018-03-04T18:53:57.680Z,115.07
2018-03-04T18:56:25.629Z,109.87
2018-03-04T18:58:54.565Z,115.60
2018-03-04T19:01:22.300Z,97.67
2018-03-04T19:03:50.053Z,105.20
2018-03-04T19:06:17.831Z,94.30
2018-03-04T19:08:45.596Z,98.67
2018-03-04T19:11:13.348Z,98.57
2018-03-04T19:13:41.098Z,97.13
2018-03-04T19:16:08.852Z,105.87
2018-03-04T19:18:37.407Z,99.33
2018-03-04T19:21:05.180Z,93.17
2018-03-04T19:23:33.080Z,88.20
2018-03-04T19:26:00.841Z,94.23
2018-03-04T19:28:28.616Z,103.13
2018-03-04T19:30:56.386Z,112.50
2018-03-04T19:33:24.130Z,95.63
2018-03-04T19:35:51.889Z,113.80
2018-03-04T19:38:19.664Z,108.87
2018-03-04T19:40:47.412Z,103.63
2018-03-04T19:43:15.165Z,95.73
2018-03-04T19:45:43.743Z,79.63
2018-03-04T19:48:12.272Z,103.87
2018-03-04T19:50:41.166Z,107.57
2018-03-04T19:53:10.110Z,90.87
2018-03-04T19:55:38.901Z,84.60
2018-03-04T19:58:07.507Z,95.80
2018-03-04T20:00:35.258Z,96.37
2018-03-04T20:03:04.822Z,104.43
2018-03-04T20:05:33.366Z,85.37
2018-03-04T20:08:02.125Z,107.83
2018-03-04T20:10:29.885Z,87.40
2018-03-04T20:12:59.457Z,94.93
2018-03-04T20:15:28.028Z,97.03
2018-03-04T20:17:57.015Z,89.77
2018-03-04T20:20:24.842Z,110.80
2018-03-04T20:22:53.257Z,101.30
2018-03-04T20:25:22.629Z,99.13
2018-03-04T20:27:51.290Z,89.00
2018-03-04T20:30:19.911Z,80.23
2018-03-04T20:32:49.352Z,87.80
2018-03-04T20:35:17.104Z,88.90
2018-03-04T20:37:45.261Z,74.50
2018-03-04T20:40:13.072Z,81.60
2018-03-04T20:42:41.592Z,78.03
2018-03-04T20:45:10.224Z,75.50
2018-03-04T20:47:38.791Z,66.10
2018-03-04T20:50:07.513Z,73.27
2018-03-04T20:52:36.236Z,68.70
2018-03-04T20:55:04.048Z,69.80
2018-03-04T20:57:32.645Z,66.10
2018-03-04T21:00:00.875Z,69.53
2018-03-04T21:02:29.303Z,68.27
2018-03-04T21:05:00.809Z,63.73
2018-03-04T21:07:30.064Z,52.60
2018-03-04T21:09:58.800Z,57.20
2018-03-04T21:12:27.672Z,56.70
2018-03-04T21:14:57.194Z,55.60
2018-03-04T21:17:25.832Z,53.83
2018-03-04T21:19:56.189Z,59.17
2018-03-04T21:22:24.081Z,53.63
2018-03-04T21:24:53.612Z,55.73
2018-03-04T21:27:23.706Z,55.67
2018-03-04T21:29:53.764Z,53.33
2018-03-04T21:32:21.443Z,53.23
2018-03-04T21:34:49.687Z,45.27
2018-03-04T21:37:17.347Z,52.13
2018-03-04T21:39:45.877Z,50.63
2018-03-04T21:42:14.536Z,52.50
2018-03-04T21:44:42.184Z,56.60
2018-03-04T21:47:09.836Z,52.97
2018-03-04T21:49:37.578Z,54.63
2018-03-04T21:52:06.929Z,49.93
2018-03-04T21:54:34.888Z,55.47
2018-03-04T21:57:02.706Z,52.17
2018-03-04T21:59:32.290Z,50.30
2018-03-04T22:02:04.569Z,42.77
2018-03-04T22:04:34.971Z,39.00
2018-03-04T22:07:02.804Z,40.60
2018-03-04T22:09:30.601Z,44.00
2018-03-04T22:11:58.386Z,41.73
2018-03-04T22:14:26.984Z,38.67
2018-03-04T22:16:54.821Z,35.07
2018-03-04T22:19:23.245Z,41.63
2018-03-04T22:21:50.896Z,34.63
2018-03-04T22:24:18.566Z,31.83
2018-03-04T22:26:46.212Z,31.70
2018-03-04T22:29:13.870Z,29.27
2018-03-04T22:31:42.300Z,30.43
2018-03-04T22:34:09.960Z,30.83
2018-03-04T22:36:37.647Z,32.97
2018-03-04T22:39:05.370Z,45.13
2018-03-04T22:41:33.020Z,43.33
2018-03-04T22:44:00.679Z,39.87
2018-03-04T22:46:28.354Z,44.20
2018-03-04T22:48:56.000Z,44.97
2018-03-04T22:51:23.667Z,47.53
2018-03-04T22:53:51.334Z,47.43
2018-03-04T22:56:18.977Z,51.67
2018-03-04T22:58:46.620Z,48.10
2018-03-04T23:01:14.295Z,53.33
2018-03-04T23:03:41.955Z,53.63
2018-03-04T23:06:09.607Z,52.87
2018-03-04T23:08:37.271Z,59.13
2018-03-04T23:11:04.916Z,57.40
2018-03-04T23:13:33.377Z,56.87
2018-03-04T23:16:01.803Z,58.27
2018-03-04T23:18:29.450Z,55.57
2018-03-04T23:20:57.104Z,51.93
2018-03-04T23:23:24.796Z,55.93
2018-03-04T23:25:52.437Z,53.10
2018-03-04T23:28:20.091Z,49.33
2018-03-04T23:30:47.736Z,50.37
2018-03-04T23:33:16.166Z,57.03
2018-03-04T23:35:43.828Z,52.43
2018-03-04T23:38:11.575Z,48.07
2018-03-04T23:40:39.219Z,56.03
2018-03-04T23:43:06.881Z,49.17
2018-03-04T23:45:34.539Z,54.10
2018-03-04T23:48:02.187Z,49.70
2018-03-04T23:50:29.832Z,47.90
2018-03-04T23:52:58.264Z,52.57
2018-03-04T23:55:25.935Z,48.77
2018-03-04T23:57:53.591Z,51.87
